Hauptseite
METAR-TAF:

METAR-TAF

Flughäfen :

Diest, Belgien

Schaffen

Breite: 51-00N, Länge: 005-04E, Höhe: 30 m

Beobachtung

Neuester Wetterbericht von vor 34 Minuten, um 12:34 UTC
Wind 5 kt aus Süd/Südost
Temperatur 2°C
Luftfeuchtigkeit 100%
Luftdruck 1001 hPa
Sichtweite 10 km oder mehr
Regen

METAR: EBDT 201234Z AUTO 16005KT 9999 RA SCT006/// OVC009/// 02/02 Q1001 YLO

Zeit: 14:08 (13:08 UTC)

Prognose

Neuester Wetterbericht von vor 21 Stunden und 27 Minuten, um 15:41 UTC
Gültige Prognose vom 19 um 19 UTC bis 20 um 07 UTC
Wind 8 kt aus West/Südwest
Sichtweite 10 km oder mehr
Aufgelockert bewölkt in der Höhe von 2500 ft
Übergehend zu
vom 20 um 04 UTC bis 20 um 06 UTC
Sichtweite: 6000 m
Aufgelockert bewölkt in der Höhe von 1200 ft

TAF: EBDT 191541Z 1919/2007 24008KT 9999 SCT025 BECMG 2004/2006 6000 SCT012

Wetterbeobachtungen und Prognosen von mehr als 4000 Flughäfen (METAR und TAF Bericht).

Die verfügbaren Stationen werden durch gelbe und rote Markierungen auf der Karte dargestellt.

Führen Sie die Maus auf sie, um den Namen der Station zu sehen.

Darauf klicken, um die Beobachtung von Wetterbeobachtungen und Prognosen zu sehen.

Um die Karte zu ändern : klicken Sie auf den grünen Tasten mit einem schwarzen Kreuz Zum Vergrößern, auf den grünen Button mit einem Gedankenstrich zu verkleinern, oder auf die grünen Pfeile für benachbarte Karten.


METAR-TAF: